createdAt,value
2022-09-10T04:00:54.382Z,6.30
2022-09-10T04:03:26.560Z,6.30
2022-09-10T04:05:55.476Z,6.10
2022-09-10T04:08:24.674Z,5.40
2022-09-10T04:10:57.440Z,5.90
2022-09-10T04:13:26.920Z,6.40
2022-09-10T04:15:56.460Z,5.90
2022-09-10T04:18:27.027Z,6.70
2022-09-10T04:20:56.598Z,6.60
2022-09-10T04:23:25.493Z,7.00
2022-09-10T04:25:54.574Z,5.80
2022-09-10T04:28:24.445Z,5.60
2022-09-10T04:30:53.186Z,6.30
2022-09-10T04:33:28.724Z,6.20
2022-09-10T04:36:00.893Z,6.90
2022-09-10T04:38:30.795Z,7.00
2022-09-10T04:41:03.584Z,7.40
2022-09-10T04:43:32.022Z,5.50
2022-09-10T04:46:01.790Z,6.50
2022-09-10T04:48:34.091Z,7.00
2022-09-10T04:51:16.184Z,7.00
2022-09-10T04:53:49.697Z,6.40
2022-09-10T04:56:18.871Z,6.80
2022-09-10T04:58:48.811Z,6.40
2022-09-10T05:01:17.796Z,6.40
2022-09-10T05:03:48.117Z,6.20
2022-09-10T05:06:16.966Z,7.10
2022-09-10T05:08:49.352Z,6.90
2022-09-10T05:11:22.361Z,7.00
2022-09-10T05:13:51.108Z,6.60
2022-09-10T05:16:22.745Z,7.30
2022-09-10T05:18:51.216Z,6.30
2022-09-10T05:21:20.226Z,6.90
2022-09-10T05:23:48.847Z,6.80
2022-09-10T05:26:17.175Z,6.90
2022-09-10T05:28:45.613Z,7.00
2022-09-10T05:31:17.607Z,6.90
2022-09-10T05:33:47.157Z,7.20
2022-09-10T05:36:15.729Z,7.20
2022-09-10T05:38:46.626Z,9.30
2022-09-10T05:41:16.960Z,7.40
2022-09-10T05:43:49.517Z,7.20
2022-09-10T05:46:18.613Z,6.60
2022-09-10T05:51:28.491Z,6.30
2022-09-10T05:53:58.916Z,6.20
2022-09-10T05:56:27.991Z,7.30
2022-09-10T05:58:58.419Z,7.40
2022-09-10T06:01:30.375Z,7.10
2022-09-10T06:04:00.145Z,5.70
2022-09-10T06:06:28.619Z,5.90
2022-09-10T06:09:02.947Z,5.90
2022-09-10T06:11:49.983Z,7.00
2022-09-10T06:14:20.554Z,6.80
2022-09-10T06:16:50.215Z,6.70
2022-09-10T06:19:20.067Z,6.50
2022-09-10T06:21:51.097Z,6.30
2022-09-10T06:24:23.707Z,5.60
2022-09-10T06:26:55.683Z,6.90
2022-09-10T06:29:25.586Z,5.90
2022-09-10T06:31:54.031Z,6.70
2022-09-10T06:34:22.580Z,6.80
2022-09-10T06:36:51.183Z,6.80
2022-09-10T06:39:19.871Z,6.10
2022-09-10T06:41:51.885Z,6.40
2022-09-10T06:44:53.648Z,6.70
2022-09-10T06:48:32.766Z,7.50
2022-09-10T06:50:51.184Z,7.10
2022-09-10T06:53:22.561Z,7.00
2022-09-10T06:55:55.670Z,6.90
2022-09-10T06:58:24.965Z,6.90
2022-09-10T07:00:53.801Z,6.30
2022-09-10T07:03:24.466Z,6.80
2022-09-10T07:05:56.200Z,6.70
2022-09-10T07:08:28.813Z,6.80
2022-09-10T07:11:05.255Z,6.30
2022-09-10T07:13:35.729Z,7.10
2022-09-10T07:16:05.786Z,6.40
2022-09-10T07:18:36.398Z,6.60
2022-09-10T07:21:14.398Z,6.50
2022-09-10T07:23:48.885Z,7.30
2022-09-10T07:26:22.109Z,6.90
2022-09-10T07:28:52.659Z,5.70
2022-09-10T07:31:29.230Z,6.30
2022-09-10T07:34:02.782Z,6.30
2022-09-10T07:36:32.441Z,5.90
2022-09-10T07:39:02.209Z,5.50
2022-09-10T07:41:36.157Z,6.40
2022-09-10T07:44:08.915Z,5.90
2022-09-10T07:46:41.417Z,6.80
2022-09-10T07:49:13.809Z,6.20
2022-09-10T07:51:45.260Z,5.30
2022-09-10T07:54:17.698Z,5.10
2022-09-10T07:56:52.955Z,4.70
2022-09-10T07:59:22.778Z,5.10
2022-09-10T08:02:06.878Z,6.00
2022-09-10T08:04:38.853Z,6.30
2022-09-10T08:07:11.505Z,5.20
2022-09-10T08:09:43.555Z,6.50
2022-09-10T08:12:18.133Z,5.60
2022-09-10T08:14:48.325Z,6.00
2022-09-10T08:17:17.998Z,5.70
2022-09-10T08:19:47.348Z,6.00
2022-09-10T08:22:16.903Z,6.70
2022-09-10T08:24:50.623Z,6.00
2022-09-10T08:27:19.535Z,6.20
2022-09-10T08:29:49.210Z,6.20
2022-09-10T08:32:17.994Z,5.70
2022-09-10T08:34:46.780Z,6.00
2022-09-10T08:37:17.298Z,6.30
2022-09-10T08:39:45.837Z,5.90
2022-09-10T08:42:43.297Z,6.00
2022-09-10T08:45:28.020Z,6.20
2022-09-10T08:48:03.314Z,6.00
2022-09-10T08:50:52.908Z,6.90
2022-09-10T08:53:42.627Z,6.50
2022-09-10T08:56:17.000Z,6.50
2022-09-10T08:59:11.532Z,6.60
2022-09-10T09:01:53.694Z,6.50
2022-09-10T09:04:44.325Z,6.30
2022-09-10T09:07:15.845Z,5.70
2022-09-10T09:09:50.543Z,5.00
2022-09-10T09:12:19.293Z,6.10
2022-09-10T09:15:18.017Z,8.60
2022-09-10T09:17:52.063Z,9.10
2022-09-10T09:20:39.680Z,8.80
2022-09-10T09:23:23.404Z,6.00
2022-09-10T09:26:03.021Z,5.30
2022-09-10T09:28:52.031Z,8.60
2022-09-10T09:31:33.511Z,5.70
2022-09-10T09:34:22.735Z,7.00
2022-09-10T09:36:54.612Z,6.20
2022-09-10T09:39:48.815Z,6.10
2022-09-10T09:42:50.156Z,6.20
2022-09-10T09:45:28.916Z,6.10
2022-09-10T09:47:59.540Z,7.00
2022-09-10T09:50:32.069Z,18.50
2022-09-10T09:53:01.283Z,9.30
2022-09-10T09:55:38.297Z,8.00
2022-09-10T09:58:43.013Z,8.30
2022-09-10T10:01:22.529Z,6.40
2022-09-10T10:04:01.611Z,6.40
2022-09-10T10:06:35.133Z,7.80
2022-09-10T10:11:46.338Z,8.80
2022-09-10T10:14:24.532Z,7.70
2022-09-10T10:17:00.023Z,7.00
2022-09-10T10:19:33.040Z,7.30
2022-09-10T10:22:21.074Z,6.60
2022-09-10T10:24:52.288Z,8.90
2022-09-10T10:27:27.556Z,9.40
2022-09-10T10:30:01.177Z,8.70
2022-09-10T10:32:56.891Z,8.90
2022-09-10T10:35:35.588Z,9.70
2022-09-10T10:38:33.537Z,8.70
2022-09-10T10:41:08.331Z,7.20
2022-09-10T10:43:46.253Z,8.20
2022-09-10T10:46:22.335Z,8.60
2022-09-10T10:49:04.166Z,8.40
2022-09-10T10:51:43.970Z,9.20
2022-09-10T10:54:42.211Z,9.40
2022-09-10T10:57:35.669Z,7.90
2022-09-10T11:00:10.986Z,7.60
2022-09-10T11:02:55.380Z,8.30
2022-09-10T11:05:39.984Z,7.90
2022-09-10T11:08:17.707Z,8.80
2022-09-10T11:11:04.315Z,9.50
2022-09-10T11:13:45.046Z,9.30
2022-09-10T11:16:17.377Z,9.80
2022-09-10T11:18:55.156Z,10.70
2022-09-10T11:22:12.282Z,8.90
2022-09-10T11:24:48.619Z,9.50
2022-09-10T11:27:28.679Z,10.90
2022-09-10T11:30:12.883Z,10.20
2022-09-10T11:35:33.542Z,10.30
2022-09-10T11:38:02.560Z,9.90
2022-09-10T11:40:52.838Z,7.80
2022-09-10T11:43:38.045Z,9.10
2022-09-10T11:46:22.810Z,8.90
2022-09-10T11:49:08.674Z,11.10
2022-09-10T11:51:39.638Z,11.50
2022-09-10T11:54:16.664Z,11.10
2022-09-10T11:57:02.112Z,10.80
2022-09-10T11:59:50.322Z,10.50
2022-09-10T12:02:58.140Z,9.70
2022-09-10T12:05:54.018Z,9.30
2022-09-10T12:08:35.374Z,10.80
2022-09-10T12:11:20.259Z,9.50
2022-09-10T12:13:53.384Z,11.50
2022-09-10T12:16:58.280Z,11.10
2022-09-10T12:19:46.911Z,10.40
2022-09-10T12:22:37.834Z,9.40
2022-09-10T12:25:33.574Z,10.90
2022-09-10T12:28:08.577Z,11.00
2022-09-10T12:30:37.728Z,11.20
2022-09-10T12:33:13.141Z,10.20
2022-09-10T12:35:50.182Z,9.30
2022-09-10T12:38:48.940Z,9.30
2022-09-10T12:41:23.915Z,10.80
2022-09-10T12:44:29.142Z,10.80
2022-09-10T12:47:18.047Z,10.00
2022-09-10T12:50:01.336Z,25.50
2022-09-10T12:52:32.064Z,40.20
2022-09-10T12:55:30.044Z,16.40
2022-09-10T12:58:13.303Z,13.30
2022-09-10T13:00:55.695Z,11.60
2022-09-10T13:03:29.515Z,21.00
2022-09-10T13:06:02.413Z,14.10
2022-09-10T13:08:42.082Z,27.20
2022-09-10T13:11:23.378Z,25.60
2022-09-10T13:14:02.894Z,20.30
2022-09-10T13:16:31.760Z,24.90
2022-09-10T13:19:19.712Z,12.90
2022-09-10T13:21:48.678Z,10.10
2022-09-10T13:24:36.482Z,13.90
2022-09-10T13:27:35.393Z,19.40
2022-09-10T13:30:22.707Z,11.70
2022-09-10T13:32:57.203Z,10.50
2022-09-10T13:35:50.536Z,29.40
2022-09-10T13:38:54.538Z,10.40
2022-09-10T13:41:43.389Z,11.90
2022-09-10T13:44:37.796Z,13.60
2022-09-10T13:50:00.964Z,11.60
2022-09-10T13:52:35.691Z,13.40
2022-09-10T13:55:08.574Z,10.20
2022-09-10T13:57:49.284Z,9.70
2022-09-10T14:00:17.423Z,9.10
2022-09-10T14:02:48.793Z,8.60
2022-09-10T14:05:38.247Z,10.10
2022-09-10T14:08:19.284Z,9.90
2022-09-10T14:10:49.716Z,11.90
2022-09-10T14:13:23.904Z,10.60
2022-09-10T14:15:54.919Z,9.50
2022-09-10T14:18:32.180Z,15.50
2022-09-10T14:21:00.893Z,10.80
2022-09-10T14:23:30.011Z,12.60
2022-09-10T14:26:37.096Z,10.40
2022-09-10T14:29:25.677Z,9.90
2022-09-10T14:31:54.680Z,13.10
2022-09-10T14:34:38.260Z,15.50
2022-09-10T14:37:38.862Z,11.40
2022-09-10T14:40:18.943Z,9.50
2022-09-10T14:42:50.100Z,9.60
2022-09-10T14:45:43.483Z,9.40
2022-09-10T14:48:39.169Z,10.30
2022-09-10T14:51:15.934Z,10.00
2022-09-10T14:53:47.026Z,7.90
2022-09-10T14:56:31.588Z,7.20
2022-09-10T14:59:02.562Z,9.00
2022-09-10T15:01:32.396Z,9.10
2022-09-10T15:04:01.423Z,8.80
2022-09-10T15:06:32.136Z,10.10
2022-09-10T15:09:02.015Z,10.50
2022-09-10T15:11:31.462Z,10.60
2022-09-10T15:14:01.090Z,10.50
2022-09-10T15:16:30.122Z,10.50
2022-09-10T15:18:59.212Z,17.40
2022-09-10T15:21:31.855Z,11.60
2022-09-10T15:24:00.723Z,10.10
2022-09-10T15:26:29.990Z,14.50
2022-09-10T15:28:59.587Z,10.20
2022-09-10T15:31:32.490Z,10.80
2022-09-10T15:34:03.336Z,8.90
2022-09-10T15:36:33.736Z,10.10
2022-09-10T15:39:04.281Z,14.90
2022-09-10T15:41:33.421Z,11.10
2022-09-10T15:44:03.817Z,11.20
2022-09-10T15:46:32.636Z,14.00
2022-09-10T15:49:04.850Z,10.10
2022-09-10T15:51:33.587Z,10.10
2022-09-10T15:54:05.285Z,11.20
2022-09-10T15:56:34.727Z,13.70
2022-09-10T15:59:17.344Z,10.30
2022-09-10T16:01:47.237Z,9.90
2022-09-10T16:04:16.417Z,10.90
2022-09-10T16:06:45.344Z,10.60
2022-09-10T16:09:14.170Z,9.70
2022-09-10T16:11:44.035Z,10.50
2022-09-10T16:14:16.409Z,9.60
2022-09-10T16:16:46.362Z,10.00
2022-09-10T16:19:17.861Z,10.00
2022-09-10T16:21:47.146Z,10.00
2022-09-10T16:24:15.999Z,9.20
2022-09-10T16:26:45.836Z,9.80
2022-09-10T16:29:20.148Z,12.30
2022-09-10T16:31:52.637Z,12.10
2022-09-10T16:34:23.107Z,11.80
2022-09-10T16:36:52.891Z,12.10
2022-09-10T16:39:24.288Z,11.20
2022-09-10T16:41:56.642Z,10.20
2022-09-10T16:44:25.816Z,10.90
2022-09-10T16:46:58.625Z,10.80
2022-09-10T16:49:30.525Z,12.80
2022-09-10T16:51:59.823Z,12.30
2022-09-10T16:54:30.645Z,11.90
2022-09-10T16:56:59.802Z,11.60
2022-09-10T16:59:29.461Z,11.30
2022-09-10T17:02:00.067Z,12.40
2022-09-10T17:04:29.541Z,11.10
2022-09-10T17:07:00.687Z,11.40
2022-09-10T17:09:29.814Z,12.20
2022-09-10T17:11:58.582Z,12.80
2022-09-10T17:14:27.100Z,11.70
2022-09-10T17:16:56.693Z,11.30
2022-09-10T17:19:26.715Z,10.60
2022-09-10T17:21:57.400Z,11.00
2022-09-10T17:24:30.692Z,11.80
2022-09-10T17:27:00.206Z,12.50
2022-09-10T17:29:28.891Z,12.80
2022-09-10T17:31:57.926Z,13.00
2022-09-10T17:34:29.508Z,11.70
2022-09-10T17:36:58.793Z,11.00
2022-09-10T17:39:29.500Z,10.80
2022-09-10T17:41:59.424Z,12.10
2022-09-10T17:44:31.511Z,9.30
2022-09-10T17:47:00.726Z,12.30
2022-09-10T17:49:29.429Z,13.20
2022-09-10T17:51:58.560Z,11.30
2022-09-10T17:54:27.564Z,12.00
2022-09-10T17:56:56.520Z,11.10
2022-09-10T17:59:25.732Z,12.10
2022-09-10T18:01:55.131Z,12.20
2022-09-10T18:04:26.995Z,12.30
2022-09-10T18:06:55.792Z,13.60
2022-09-10T18:09:28.444Z,12.70
2022-09-10T18:11:57.825Z,11.50
2022-09-10T18:14:26.661Z,12.70
2022-09-10T18:16:58.267Z,14.20
2022-09-10T18:19:26.710Z,15.40
2022-09-10T18:21:55.751Z,15.10
2022-09-10T18:24:25.341Z,15.30
2022-09-10T18:26:55.548Z,14.60
2022-09-10T18:29:30.664Z,15.30
2022-09-10T18:32:04.595Z,17.30
2022-09-10T18:34:32.971Z,14.90
2022-09-10T18:37:07.267Z,14.50
2022-09-10T18:39:54.725Z,14.90
2022-09-10T18:42:23.724Z,14.30
2022-09-10T18:44:52.410Z,12.00
2022-09-10T18:47:41.182Z,12.10
2022-09-10T18:50:10.531Z,12.60
2022-09-10T18:52:39.640Z,14.00
2022-09-10T18:55:09.305Z,13.80
2022-09-10T18:57:38.119Z,13.90
2022-09-10T19:00:07.881Z,12.80
2022-09-10T19:02:37.023Z,19.40
2022-09-10T19:05:13.438Z,21.00
2022-09-10T19:08:03.072Z,18.90
2022-09-10T19:10:31.928Z,16.10
2022-09-10T19:13:01.058Z,15.50
2022-09-10T19:15:29.762Z,16.10
2022-09-10T19:17:58.624Z,16.70
2022-09-10T19:20:27.581Z,13.70
2022-09-10T19:22:56.154Z,13.60
2022-09-10T19:25:25.126Z,14.30
2022-09-10T19:27:53.544Z,12.30
2022-09-10T19:30:22.541Z,14.30
2022-09-10T19:32:54.291Z,15.90
2022-09-10T19:35:23.269Z,14.80
2022-09-10T19:37:51.894Z,13.70
2022-09-10T19:40:21.284Z,14.10
2022-09-10T19:42:50.347Z,12.80
2022-09-10T19:45:20.845Z,13.60
2022-09-10T19:47:50.102Z,15.60
2022-09-10T19:50:23.146Z,14.40
2022-09-10T19:52:54.266Z,15.60
2022-09-10T19:55:24.872Z,14.00
2022-09-10T19:57:55.377Z,12.50
2022-09-10T20:00:45.467Z,13.60
2022-09-10T20:03:12.431Z,13.40
2022-09-10T20:05:43.043Z,14.10
2022-09-10T20:08:11.490Z,14.60
2022-09-10T20:10:39.804Z,14.90
2022-09-10T20:13:08.704Z,14.50
2022-09-10T20:15:43.550Z,14.60
2022-09-10T20:18:26.925Z,14.00
2022-09-10T20:21:32.644Z,13.70
2022-09-10T20:24:01.670Z,15.20
2022-09-10T20:26:34.069Z,15.30
2022-09-10T20:29:08.648Z,14.80
2022-09-10T20:31:41.665Z,14.60
2022-09-10T20:34:17.433Z,15.20
2022-09-10T20:36:47.175Z,15.50
2022-09-10T20:39:18.997Z,15.30
2022-09-10T20:41:47.921Z,14.40
2022-09-10T20:44:17.883Z,15.40
2022-09-10T20:46:47.125Z,16.10
2022-09-10T20:49:16.760Z,14.30
2022-09-10T20:51:46.037Z,14.60
2022-09-10T20:54:17.765Z,14.90
2022-09-10T20:56:47.135Z,14.70
2022-09-10T20:59:17.705Z,14.90
2022-09-10T21:01:47.367Z,13.40
2022-09-10T21:04:15.781Z,15.10
2022-09-10T21:06:45.018Z,16.00
2022-09-10T21:09:13.687Z,15.60
2022-09-10T21:11:42.653Z,16.40
2022-09-10T21:14:12.484Z,15.40
2022-09-10T21:16:43.819Z,15.50
2022-09-10T21:19:15.449Z,14.90
2022-09-10T21:21:45.927Z,14.60
2022-09-10T21:24:17.289Z,15.60
2022-09-10T21:26:46.469Z,17.30
2022-09-10T21:29:21.131Z,16.60
2022-09-10T21:31:55.404Z,17.40
2022-09-10T21:34:24.199Z,13.20
2022-09-10T21:36:53.822Z,14.30
2022-09-10T21:39:24.112Z,14.20
2022-09-10T21:41:52.702Z,14.20
2022-09-10T21:44:23.515Z,14.50
2022-09-10T21:46:53.108Z,15.90
2022-09-10T21:49:21.742Z,15.40
2022-09-10T21:51:51.321Z,16.10
2022-09-10T21:54:22.460Z,14.80
2022-09-10T21:56:53.018Z,16.20
2022-09-10T21:59:22.660Z,15.10
2022-09-10T22:01:51.948Z,14.10
2022-09-10T22:04:23.292Z,13.80
2022-09-10T22:06:54.385Z,13.00
2022-09-10T22:09:24.606Z,14.80
2022-09-10T22:11:55.254Z,13.60
2022-09-10T22:14:25.845Z,13.30
2022-09-10T22:16:55.526Z,14.30
2022-09-10T22:19:26.733Z,14.30
2022-09-10T22:21:57.317Z,13.90
2022-09-10T22:24:26.825Z,13.70
2022-09-10T22:26:55.977Z,12.80
2022-09-10T22:29:25.985Z,13.20
2022-09-10T22:31:56.117Z,13.40
2022-09-10T22:34:25.389Z,11.90
2022-09-10T22:36:54.588Z,12.60
2022-09-10T22:39:23.730Z,12.50
2022-09-10T22:41:52.824Z,12.70
2022-09-10T22:44:23.834Z,12.20
2022-09-10T22:46:53.146Z,12.40
2022-09-10T22:49:22.336Z,12.80
2022-09-10T22:51:51.805Z,12.60
2022-09-10T22:54:21.159Z,12.90
2022-09-10T22:56:50.241Z,10.90
2022-09-10T22:59:19.357Z,11.10
2022-09-10T23:01:48.786Z,11.30
2022-09-10T23:04:18.028Z,11.00
2022-09-10T23:06:47.320Z,11.50
2022-09-10T23:09:17.201Z,10.60
2022-09-10T23:11:47.345Z,10.30
2022-09-10T23:14:22.283Z,11.20
2022-09-10T23:16:52.582Z,9.50
2022-09-10T23:19:24.274Z,9.50
2022-09-10T23:21:55.621Z,8.80
2022-09-10T23:24:27.069Z,9.40
2022-09-10T23:26:56.661Z,9.30
2022-09-10T23:29:25.790Z,8.70
2022-09-10T23:31:55.053Z,9.70
2022-09-10T23:34:24.392Z,8.20
2022-09-10T23:36:54.222Z,8.80
2022-09-10T23:39:25.478Z,9.00
2022-09-10T23:41:58.660Z,8.30
2022-09-10T23:44:27.955Z,8.50
2022-09-10T23:46:57.817Z,7.80
2022-09-10T23:49:26.686Z,8.10
2022-09-10T23:51:55.892Z,8.30
2022-09-10T23:54:24.922Z,8.70
2022-09-10T23:56:54.188Z,7.70
2022-09-10T23:59:23.492Z,8.60
